createdAt,value
2019-01-03T00:00:46.756Z,1.90
2019-01-03T00:03:43.977Z,2.33
2019-01-03T00:06:50.211Z,2.57
2019-01-03T00:09:33.646Z,1.60
2019-01-03T00:12:27.930Z,2.20
2019-01-03T00:15:28.109Z,2.00
2019-01-03T00:18:19.530Z,2.00
2019-01-03T00:21:13.748Z,1.70
2019-01-03T00:24:10.972Z,1.90
2019-01-03T00:27:08.341Z,2.10
2019-01-03T00:29:58.221Z,1.83
2019-01-03T00:32:47.794Z,1.63
2019-01-03T00:35:37.474Z,1.73
2019-01-03T00:38:25.145Z,2.00
2019-01-03T00:41:20.925Z,2.33
2019-01-03T00:44:06.494Z,1.80
2019-01-03T00:47:01.944Z,1.83
2019-01-03T00:49:56.226Z,1.20
2019-01-03T00:52:38.465Z,1.70
2019-01-03T00:55:44.493Z,1.50
2019-01-03T00:58:31.726Z,2.33
2019-01-03T01:01:20.879Z,1.80
2019-01-03T01:04:20.804Z,1.63
2019-01-03T01:07:20.321Z,2.03
2019-01-03T01:10:20.647Z,2.17
2019-01-03T01:13:17.795Z,1.60
2019-01-03T01:16:07.767Z,2.17
2019-01-03T01:18:59.452Z,1.87
2019-01-03T01:21:52.960Z,1.67
2019-01-03T01:24:44.314Z,1.93
2019-01-03T01:27:35.649Z,1.60
2019-01-03T01:30:41.917Z,1.57
2019-01-03T01:33:38.377Z,1.43
2019-01-03T01:36:38.955Z,1.20
2019-01-03T01:39:38.257Z,1.67
2019-01-03T01:42:42.266Z,1.50
2019-01-03T01:45:38.428Z,1.67
2019-01-03T01:48:28.184Z,2.13
2019-01-03T01:51:18.053Z,1.57
2019-01-03T01:54:14.565Z,1.50
2019-01-03T01:56:58.879Z,1.80
2019-01-03T01:59:48.802Z,1.70
2019-01-03T02:02:33.893Z,1.53
2019-01-03T02:05:20.405Z,1.53
2019-01-03T02:08:10.307Z,2.10
2019-01-03T02:11:00.218Z,1.67
2019-01-03T02:14:00.569Z,1.70
2019-01-03T02:16:43.481Z,2.07
2019-01-03T02:19:30.358Z,1.70
2019-01-03T02:22:20.322Z,1.90
2019-01-03T02:25:07.763Z,1.50
2019-01-03T02:27:57.680Z,1.53
2019-01-03T02:31:00.058Z,1.87
2019-01-03T02:33:53.936Z,1.97
2019-01-03T02:36:47.594Z,1.37
2019-01-03T02:39:54.054Z,1.73
2019-01-03T02:42:39.374Z,1.40
2019-01-03T02:45:27.348Z,1.43
2019-01-03T02:48:18.665Z,1.73
2019-01-03T02:51:09.988Z,2.03
2019-01-03T02:53:59.913Z,1.17
2019-01-03T02:56:49.403Z,1.40
2019-01-03T02:59:36.800Z,1.37
2019-01-03T03:02:26.557Z,1.73
2019-01-03T03:05:29.941Z,1.27
2019-01-03T03:08:19.617Z,1.80
2019-01-03T03:11:09.156Z,1.50
2019-01-03T03:14:09.488Z,1.90
2019-01-03T03:17:06.335Z,1.90
2019-01-03T03:19:57.649Z,2.23
2019-01-03T03:23:06.947Z,1.70
2019-01-03T03:25:56.557Z,1.50
2019-01-03T03:28:46.508Z,1.90
2019-01-03T03:31:33.042Z,1.87
2019-01-03T03:34:33.473Z,2.70
2019-01-03T03:37:28.592Z,1.50
2019-01-03T03:40:34.413Z,1.40
2019-01-03T03:43:24.568Z,1.63
2019-01-03T03:46:16.834Z,1.70
2019-01-03T03:49:07.593Z,1.50
2019-01-03T03:51:57.607Z,1.70
2019-01-03T03:54:51.540Z,1.60
2019-01-03T03:57:51.679Z,1.70
2019-01-03T04:00:41.597Z,1.60
2019-01-03T04:03:42.126Z,2.10
2019-01-03T04:06:31.942Z,1.80
2019-01-03T04:09:21.474Z,1.77
2019-01-03T04:12:11.062Z,1.50
2019-01-03T04:15:14.480Z,1.67
2019-01-03T04:18:19.186Z,1.90
2019-01-03T04:21:03.076Z,1.90
2019-01-03T04:23:48.471Z,3.07
2019-01-03T04:26:37.998Z,1.47
2019-01-03T04:29:17.880Z,1.40
2019-01-03T04:32:07.508Z,1.70
2019-01-03T04:34:50.421Z,2.30
2019-01-03T04:37:47.048Z,2.00
2019-01-03T04:40:36.817Z,1.60
2019-01-03T04:43:27.154Z,2.30
2019-01-03T04:46:24.356Z,1.67
2019-01-03T04:49:13.317Z,1.53
2019-01-03T04:52:07.328Z,1.80
2019-01-03T04:54:56.894Z,1.67
2019-01-03T04:57:46.834Z,1.40
2019-01-03T05:00:44.181Z,1.63
2019-01-03T05:03:42.715Z,1.73
2019-01-03T05:06:32.322Z,1.60
2019-01-03T05:09:24.402Z,1.60
2019-01-03T05:12:16.601Z,1.90
2019-01-03T05:15:07.061Z,1.43
2019-01-03T05:17:56.828Z,2.03
2019-01-03T05:20:37.240Z,1.77
2019-01-03T05:23:33.406Z,1.37
2019-01-03T05:26:23.270Z,2.30
2019-01-03T05:29:13.218Z,1.77
2019-01-03T05:32:10.015Z,1.90
2019-01-03T05:34:58.842Z,1.90
2019-01-03T05:37:48.601Z,1.60
2019-01-03T05:40:38.458Z,2.10
2019-01-03T05:43:24.373Z,2.00
2019-01-03T05:46:14.209Z,1.40
2019-01-03T05:49:05.556Z,1.80
2019-01-03T05:51:55.316Z,1.70
2019-01-03T05:54:45.321Z,1.67
2019-01-03T05:57:42.774Z,1.47
2019-01-03T06:00:39.836Z,1.70
2019-01-03T06:03:42.739Z,2.23
2019-01-03T06:06:35.054Z,1.33
2019-01-03T06:09:24.997Z,2.07
2019-01-03T06:12:20.666Z,1.80
2019-01-03T06:15:18.377Z,2.10
2019-01-03T06:18:08.030Z,1.77
2019-01-03T06:21:11.434Z,2.00
2019-01-03T06:24:08.374Z,1.77
2019-01-03T06:27:11.397Z,2.10
2019-01-03T06:30:00.960Z,1.93
2019-01-03T06:32:55.825Z,1.67
2019-01-03T06:35:45.790Z,1.70
2019-01-03T06:38:45.839Z,2.37
2019-01-03T06:41:35.705Z,1.80
2019-01-03T06:44:18.516Z,2.17
2019-01-03T06:47:17.744Z,2.27
2019-01-03T06:50:07.597Z,1.93
2019-01-03T06:53:01.743Z,1.80
2019-01-03T06:55:51.301Z,1.70
2019-01-03T06:58:44.905Z,2.00
2019-01-03T07:01:47.149Z,2.10
2019-01-03T07:04:30.414Z,1.93
2019-01-03T07:07:21.748Z,2.10
2019-01-03T07:10:11.601Z,2.07
2019-01-03T07:13:00.914Z,1.67
2019-01-03T07:15:50.559Z,2.10
2019-01-03T07:18:40.552Z,2.57
2019-01-03T07:21:27.449Z,2.00
2019-01-03T07:24:16.528Z,2.20
2019-01-03T07:27:10.981Z,2.07
2019-01-03T07:30:17.390Z,2.20
2019-01-03T07:33:11.633Z,2.33
2019-01-03T07:36:01.573Z,1.63
2019-01-03T07:38:49.012Z,2.13
2019-01-03T07:41:36.346Z,1.90
2019-01-03T07:44:26.297Z,1.80
2019-01-03T07:47:12.569Z,2.30
2019-01-03T07:49:57.150Z,2.03
2019-01-03T07:52:51.701Z,1.93
2019-01-03T07:55:43.078Z,2.07
2019-01-03T07:58:32.938Z,1.90
2019-01-03T08:01:31.634Z,1.87
2019-01-03T08:04:19.991Z,1.97
2019-01-03T08:07:11.554Z,1.43
2019-01-03T08:10:01.552Z,2.10
2019-01-03T08:12:51.675Z,1.50
2019-01-03T08:16:01.209Z,2.17
2019-01-03T08:18:43.951Z,1.63
2019-01-03T08:21:33.709Z,1.80
2019-01-03T08:24:16.786Z,2.03
2019-01-03T08:27:06.459Z,1.70
2019-01-03T08:29:56.798Z,1.83
2019-01-03T08:32:46.782Z,2.30
2019-01-03T08:35:32.522Z,2.57
2019-01-03T08:38:26.384Z,1.40
2019-01-03T08:41:29.314Z,1.77
2019-01-03T08:44:19.129Z,1.43
2019-01-03T08:47:12.486Z,1.47
2019-01-03T08:50:01.726Z,1.67
2019-01-03T08:52:51.348Z,1.40
2019-01-03T08:55:41.075Z,1.60
2019-01-03T08:58:33.929Z,1.70
2019-01-03T09:01:28.015Z,1.50
2019-01-03T09:04:17.793Z,2.10
2019-01-03T09:07:09.124Z,1.67
2019-01-03T09:10:05.953Z,2.00
2019-01-03T09:13:04.092Z,1.70
2019-01-03T09:15:55.422Z,2.20
2019-01-03T09:18:45.324Z,1.57
2019-01-03T09:21:32.446Z,1.73
2019-01-03T09:24:22.454Z,2.07
2019-01-03T09:27:12.563Z,2.03
2019-01-03T09:29:58.257Z,1.83
2019-01-03T09:32:49.595Z,2.67
2019-01-03T09:35:39.293Z,1.67
2019-01-03T09:38:29.894Z,2.30
2019-01-03T09:41:25.421Z,2.30
2019-01-03T09:44:16.045Z,2.63
2019-01-03T09:46:47.706Z,2.20
2019-01-03T09:49:19.354Z,1.83
2019-01-03T09:51:51.005Z,2.67
2019-01-03T09:54:22.686Z,3.00
2019-01-03T09:56:54.328Z,2.80
2019-01-03T09:59:26.037Z,2.63
2019-01-03T10:01:57.844Z,1.80
2019-01-03T10:04:29.487Z,1.90
2019-01-03T10:07:01.121Z,2.17
2019-01-03T10:09:32.788Z,2.33
2019-01-03T10:12:04.519Z,2.50
2019-01-03T10:14:36.165Z,2.20
2019-01-03T10:17:07.798Z,2.40
2019-01-03T10:19:39.705Z,2.00
2019-01-03T10:22:11.329Z,2.03
2019-01-03T10:24:43.093Z,1.90
2019-01-03T10:27:16.862Z,1.80
2019-01-03T10:29:48.536Z,1.77
2019-01-03T10:32:20.173Z,1.90
2019-01-03T10:34:51.869Z,1.70
2019-01-03T10:37:23.493Z,1.93
2019-01-03T10:39:55.413Z,1.60
2019-01-03T10:42:27.042Z,1.43
2019-01-03T10:44:58.781Z,1.77
2019-01-03T10:47:30.458Z,1.50
2019-01-03T10:50:02.314Z,1.57
2019-01-03T10:52:33.951Z,1.90
2019-01-03T10:55:05.646Z,1.93
2019-01-03T10:57:37.325Z,1.20
2019-01-03T11:00:09.532Z,1.37
2019-01-03T11:02:41.176Z,1.67
2019-01-03T11:05:13.065Z,1.33
2019-01-03T11:07:44.734Z,1.40
2019-01-03T11:10:16.883Z,1.53
2019-01-03T11:12:48.514Z,1.70
2019-01-03T11:15:20.430Z,1.13
2019-01-03T11:17:52.062Z,1.70
2019-01-03T11:20:23.978Z,1.83
2019-01-03T11:22:55.605Z,1.40
2019-01-03T11:25:27.589Z,1.23
2019-01-03T11:27:59.218Z,1.40
2019-01-03T11:30:30.930Z,1.63
2019-01-03T11:33:02.569Z,2.00
2019-01-03T11:35:34.240Z,1.50
2019-01-03T11:38:05.870Z,1.73
2019-01-03T11:40:37.524Z,2.13
2019-01-03T11:43:09.131Z,1.87
2019-01-03T11:45:40.791Z,1.70
2019-01-03T11:48:12.397Z,2.90
2019-01-03T11:50:44.081Z,1.90
2019-01-03T11:53:15.728Z,1.93
2019-01-03T11:55:47.367Z,1.20
2019-01-03T11:58:19.001Z,1.90
2019-01-03T12:00:50.892Z,1.90
2019-01-03T12:03:22.528Z,5.60
2019-01-03T12:05:54.185Z,2.40
2019-01-03T12:08:25.828Z,2.37
2019-01-03T12:10:57.472Z,2.90
2019-01-03T12:13:29.107Z,7.60
2019-01-03T12:16:00.747Z,5.30
2019-01-03T12:18:32.393Z,3.57
2019-01-03T12:21:04.034Z,2.70
2019-01-03T12:23:35.656Z,2.40
2019-01-03T12:26:07.304Z,2.30
2019-01-03T12:28:38.929Z,2.13
2019-01-03T12:31:10.596Z,2.37
2019-01-03T12:33:42.229Z,2.57
2019-01-03T12:36:13.904Z,2.53
2019-01-03T12:38:45.561Z,2.67
2019-01-03T12:41:17.218Z,2.10
2019-01-03T12:43:48.854Z,2.30
2019-01-03T12:46:20.577Z,2.40
2019-01-03T12:48:52.218Z,1.90
2019-01-03T12:51:23.867Z,3.60
2019-01-03T12:53:55.517Z,2.17
2019-01-03T12:56:27.197Z,2.53
2019-01-03T12:58:58.931Z,1.93
2019-01-03T13:01:30.613Z,2.80
2019-01-03T13:04:02.619Z,1.57
2019-01-03T13:06:34.389Z,1.97
2019-01-03T13:09:08.520Z,1.70
2019-01-03T13:11:40.200Z,2.10
2019-01-03T13:14:11.850Z,1.50
2019-01-03T13:16:43.512Z,1.60
2019-01-03T13:19:15.177Z,2.00
2019-01-03T13:21:46.818Z,2.30
2019-01-03T13:24:18.472Z,2.00
2019-01-03T13:26:52.910Z,1.90
2019-01-03T13:29:24.553Z,2.00
2019-01-03T13:31:56.209Z,2.87
2019-01-03T13:34:27.896Z,2.13
2019-01-03T13:36:59.617Z,2.17
2019-01-03T13:39:31.271Z,2.30
2019-01-03T13:42:03.004Z,2.33
2019-01-03T13:44:34.637Z,1.80
2019-01-03T13:47:06.262Z,1.80
2019-01-03T13:49:37.944Z,1.93
2019-01-03T13:52:09.609Z,1.90
2019-01-03T13:54:41.274Z,2.43
2019-01-03T13:57:12.905Z,2.50
2019-01-03T13:59:44.546Z,2.70
2019-01-03T14:02:16.176Z,3.63
2019-01-03T14:04:47.850Z,2.53
2019-01-03T14:07:19.482Z,3.23
2019-01-03T14:09:51.125Z,2.60
2019-01-03T14:12:22.751Z,3.00
2019-01-03T14:14:54.406Z,3.53
2019-01-03T14:17:26.054Z,4.27
2019-01-03T14:19:57.713Z,6.63
2019-01-03T14:22:29.344Z,6.90
2019-01-03T14:25:01.006Z,7.83
2019-01-03T14:27:32.682Z,4.47
2019-01-03T14:30:05.229Z,2.90
2019-01-03T14:32:36.849Z,3.57
2019-01-03T14:35:08.476Z,3.50
2019-01-03T14:37:40.105Z,2.53
2019-01-03T14:40:11.847Z,2.87
2019-01-03T14:42:43.480Z,3.67
2019-01-03T14:45:15.119Z,4.57
2019-01-03T14:47:46.930Z,2.50
2019-01-03T14:50:18.606Z,3.03
2019-01-03T14:52:50.665Z,3.47
2019-01-03T14:55:22.304Z,3.20
2019-01-03T14:57:53.952Z,3.03
2019-01-03T15:00:25.630Z,3.37
2019-01-03T15:02:57.237Z,3.20
2019-01-03T15:05:28.870Z,2.50
2019-01-03T15:08:01.287Z,2.70
2019-01-03T15:10:32.962Z,3.23
2019-01-03T15:13:05.213Z,2.93
2019-01-03T15:15:36.924Z,2.97
2019-01-03T15:18:08.545Z,3.27
2019-01-03T15:20:40.177Z,2.83
2019-01-03T15:23:11.802Z,2.97
2019-01-03T15:25:43.467Z,2.93
2019-01-03T15:28:15.120Z,2.70
2019-01-03T15:30:46.755Z,3.43
2019-01-03T15:33:18.384Z,3.50
2019-01-03T15:35:50.033Z,3.20
2019-01-03T15:38:21.664Z,3.20
2019-01-03T15:40:53.312Z,2.50
2019-01-03T15:43:24.969Z,2.80
2019-01-03T15:45:56.625Z,3.23
2019-01-03T15:48:28.367Z,3.37
2019-01-03T15:51:00.032Z,4.10
2019-01-03T15:53:31.684Z,4.77
2019-01-03T15:56:03.453Z,4.43
2019-01-03T15:58:35.101Z,4.13
2019-01-03T16:01:07.306Z,5.63
2019-01-03T16:03:38.981Z,3.97
2019-01-03T16:06:10.631Z,4.17
2019-01-03T16:08:42.248Z,4.60
2019-01-03T16:11:13.893Z,4.00
2019-01-03T16:13:45.524Z,3.97
2019-01-03T16:16:17.176Z,4.07
2019-01-03T16:18:48.843Z,4.47
2019-01-03T16:21:20.488Z,3.90
2019-01-03T16:23:52.116Z,4.57
2019-01-03T16:26:23.767Z,4.90
2019-01-03T16:28:55.396Z,4.30
2019-01-03T16:31:27.057Z,4.90
2019-01-03T16:33:58.726Z,4.80
2019-01-03T16:36:30.374Z,4.17
2019-01-03T16:39:02.805Z,4.50
2019-01-03T16:41:34.437Z,4.87
2019-01-03T16:44:06.075Z,4.40
2019-01-03T16:46:37.717Z,3.93
2019-01-03T16:49:09.342Z,4.00
2019-01-03T16:51:41.237Z,3.97
2019-01-03T16:54:12.858Z,3.97
2019-01-03T16:56:44.739Z,4.10
2019-01-03T16:59:16.373Z,5.07
2019-01-03T17:01:48.028Z,4.03
2019-01-03T17:04:19.695Z,4.70
2019-01-03T17:06:51.347Z,4.73
2019-01-03T17:09:22.976Z,4.97
2019-01-03T17:11:54.641Z,4.43
2019-01-03T17:14:26.274Z,3.93
2019-01-03T17:16:57.917Z,4.13
2019-01-03T17:19:29.553Z,7.03
2019-01-03T17:22:01.292Z,5.30
2019-01-03T17:24:32.913Z,4.60
2019-01-03T17:27:04.686Z,4.03
2019-01-03T17:29:36.312Z,3.87
2019-01-03T17:32:08.055Z,3.73
2019-01-03T17:34:39.682Z,4.27
2019-01-03T17:37:11.345Z,4.43
2019-01-03T17:39:42.993Z,5.37
2019-01-03T17:42:14.808Z,5.13
2019-01-03T17:44:46.462Z,5.47
2019-01-03T17:47:18.210Z,4.63
2019-01-03T17:49:49.848Z,4.07
2019-01-03T17:52:21.605Z,4.23
2019-01-03T17:54:53.236Z,3.80
2019-01-03T17:57:24.912Z,4.13
2019-01-03T17:59:56.611Z,8.33
2019-01-03T18:02:28.497Z,12.90
2019-01-03T18:05:00.178Z,8.80
2019-01-03T18:07:32.052Z,7.80
2019-01-03T18:10:04.489Z,5.90
2019-01-03T18:12:36.133Z,6.47
2019-01-03T18:15:08.206Z,6.47
2019-01-03T18:17:39.973Z,7.30
2019-01-03T18:20:13.988Z,6.17
2019-01-03T18:22:45.637Z,7.03
2019-01-03T18:25:17.358Z,7.13
2019-01-03T18:27:49.007Z,8.20
2019-01-03T18:30:20.649Z,8.67
2019-01-03T18:32:52.283Z,8.77
2019-01-03T18:35:23.925Z,7.90
2019-01-03T18:37:56.834Z,8.13
2019-01-03T18:40:28.644Z,6.67
2019-01-03T18:43:00.529Z,7.23
2019-01-03T18:45:32.190Z,8.33
2019-01-03T18:48:03.892Z,7.93
2019-01-03T18:50:35.511Z,7.63
2019-01-03T18:53:07.148Z,6.23
2019-01-03T18:55:39.870Z,7.23
2019-01-03T18:58:11.578Z,7.43
2019-01-03T19:00:43.319Z,7.63
2019-01-03T19:03:14.959Z,7.87
2019-01-03T19:05:46.586Z,8.30
2019-01-03T19:08:18.473Z,9.10
2019-01-03T19:10:50.121Z,7.83
2019-01-03T19:13:21.759Z,9.80
2019-01-03T19:15:53.397Z,9.53
2019-01-03T19:18:25.068Z,8.80
2019-01-03T19:20:56.714Z,11.23
2019-01-03T19:23:28.429Z,10.83
2019-01-03T19:26:00.180Z,10.53
2019-01-03T19:28:31.937Z,13.23
2019-01-03T19:31:03.613Z,15.13
2019-01-03T19:33:35.282Z,16.90
2019-01-03T19:36:06.966Z,18.87
2019-01-03T19:38:38.612Z,19.63
2019-01-03T19:41:10.302Z,23.13
2019-01-03T19:43:41.945Z,31.47
2019-01-03T19:46:13.721Z,29.10
2019-01-03T19:48:45.357Z,23.40
2019-01-03T19:51:17.315Z,13.50
2019-01-03T19:53:48.954Z,12.10
2019-01-03T19:56:20.647Z,11.60
2019-01-03T19:58:52.296Z,12.00
2019-01-03T20:01:23.948Z,9.87
2019-01-03T20:03:55.614Z,10.20
2019-01-03T20:06:27.323Z,13.60
2019-01-03T20:08:58.964Z,11.63
2019-01-03T20:11:30.652Z,11.93
2019-01-03T20:14:02.394Z,11.83
2019-01-03T20:16:34.073Z,11.60
2019-01-03T20:19:05.770Z,12.70
2019-01-03T20:21:37.681Z,11.50
2019-01-03T20:24:09.362Z,13.07
2019-01-03T20:26:41.110Z,12.30
2019-01-03T20:29:12.873Z,11.77
2019-01-03T20:31:44.540Z,15.27
2019-01-03T20:34:16.285Z,14.40
2019-01-03T20:36:48.155Z,13.90
2019-01-03T20:39:19.922Z,13.87
2019-01-03T20:41:51.603Z,13.53
2019-01-03T20:44:23.290Z,13.63
2019-01-03T20:46:54.975Z,14.23
2019-01-03T20:49:26.623Z,13.00
2019-01-03T20:51:58.354Z,12.57
2019-01-03T20:54:30.104Z,10.63
2019-01-03T20:57:01.823Z,11.33
2019-01-03T20:59:33.463Z,11.93
2019-01-03T21:02:05.289Z,13.80
2019-01-03T21:04:36.942Z,15.93
2019-01-03T21:07:08.594Z,21.07
2019-01-03T21:09:40.277Z,18.10
2019-01-03T21:12:11.928Z,18.80
2019-01-03T21:14:43.583Z,14.87
2019-01-03T21:17:15.227Z,13.60
2019-01-03T21:19:46.889Z,11.37
2019-01-03T21:22:18.577Z,11.23
2019-01-03T21:24:50.217Z,10.07
2019-01-03T21:27:22.368Z,8.60
2019-01-03T21:29:54.033Z,8.07
2019-01-03T21:32:25.687Z,9.70
2019-01-03T21:34:57.333Z,9.23
2019-01-03T21:37:29.009Z,7.97
2019-01-03T21:40:00.667Z,8.97
2019-01-03T21:42:32.305Z,9.53
2019-01-03T21:45:04.201Z,9.77
2019-01-03T21:47:35.956Z,10.17
2019-01-03T21:50:09.757Z,12.50
2019-01-03T21:52:41.397Z,10.50
2019-01-03T21:55:13.034Z,12.40
2019-01-03T21:57:44.682Z,10.27
2019-01-03T22:00:16.331Z,9.33
2019-01-03T22:02:47.958Z,10.37
2019-01-03T22:05:19.601Z,9.60
2019-01-03T22:07:51.228Z,12.23
2019-01-03T22:10:22.987Z,9.27
2019-01-03T22:12:54.610Z,10.10
2019-01-03T22:15:26.256Z,10.90
2019-01-03T22:17:57.897Z,10.20
2019-01-03T22:20:29.546Z,9.93
2019-01-03T22:23:01.207Z,9.47
2019-01-03T22:25:32.833Z,9.47
2019-01-03T22:28:04.484Z,9.37
2019-01-03T22:30:36.117Z,10.40
2019-01-03T22:33:07.754Z,9.77
2019-01-03T22:35:39.398Z,10.87
2019-01-03T22:38:11.041Z,9.80
2019-01-03T22:40:42.692Z,9.87
2019-01-03T22:43:14.372Z,9.60
2019-01-03T22:45:46.058Z,10.87
2019-01-03T22:48:17.682Z,10.87
2019-01-03T22:50:49.341Z,10.83
2019-01-03T22:53:20.982Z,12.43
2019-01-03T22:55:52.630Z,11.47
2019-01-03T22:58:24.313Z,10.30
2019-01-03T23:00:56.586Z,9.67
2019-01-03T23:03:28.236Z,8.80
2019-01-03T23:05:59.997Z,9.27
2019-01-03T23:08:31.680Z,8.37
2019-01-03T23:11:03.425Z,8.43
2019-01-03T23:13:35.082Z,7.60
2019-01-03T23:16:06.736Z,8.50
2019-01-03T23:18:38.397Z,7.73
2019-01-03T23:21:10.062Z,8.43
2019-01-03T23:23:41.708Z,8.37
2019-01-03T23:26:13.352Z,7.80
2019-01-03T23:28:44.982Z,7.17
2019-01-03T23:31:16.626Z,8.23
2019-01-03T23:33:48.262Z,8.03
2019-01-03T23:36:19.930Z,6.67
2019-01-03T23:38:51.582Z,6.87
2019-01-03T23:41:23.223Z,6.33
2019-01-03T23:43:54.859Z,7.00
2019-01-03T23:46:27.101Z,5.93
2019-01-03T23:48:58.728Z,5.23
2019-01-03T23:51:30.473Z,6.33
2019-01-03T23:54:02.205Z,6.17
2019-01-03T23:56:33.850Z,6.97
2019-01-03T23:59:05.467Z,5.77
